VSA weather

Carlos Rovirosa Pérez International Airport
Villahermosa, Tabasco, Mexico

Public forecast

Using degrees Celsius for public forecast. Weather courtesy of forecast.io.

Current aviation weather report (METAR) for Carlos Rovirosa Pérez International Airport

Report is more than 2 hours old.

Retrieved 2019/10/19 02:42 UTC (3 hours ago):

MMVA 190242Z 00000KT 6SM BKN020 27/27 A2983 RMK SLP099 52021 967 8/400 HZY

Aviation forecast (TAF) for Carlos Rovirosa Pérez International Airport

Forecast is more than 6 hours old.

Retrieved 2019/10/18 18:16 UTC (11 hours ago):

TAF MMVA 181712Z 1818/1918 24010KT P6SM BKN020 TEMPO 1822/1902 5SM TSRA BKN015CB FM190600 00000KT 5SM HZ BKN010 TEMPO 1910/1914 1SM BR BKN005 FM191600 00000KT P6SM SCT015 BKN200